Time;durP1;ratioP1;P1;durP2;ratioP2;P2;SDS_P1;SDS_P2;PMS_P1;PMS_P2;Temp;Humidity;BMP_temperature;BMP_pressure;BME280_temperature;BME280_humidity;BME280_pressure;Samples;Min_cycle;Max_cycle;Signal;HPM_P1;HPM_P2
2022/06/22 00:00:35;;;;;;;2.63;2.30;;;22.40;54.90;;;;;;5055062;28;20051;-66
2022/06/22 00:03:03;;;;;;;2.10;1.90;;;22.50;55.00;;;;;;5039023;28;20504;-65
2022/06/22 00:05:34;;;;;;;2.33;2.10;;;22.50;55.10;;;;;;5055340;28;20045;-65
2022/06/22 00:08:04;;;;;;;1.73;1.63;;;22.40;55.00;;;;;;5054257;28;20041;-65
2022/06/22 00:10:52;;;;;;;2.88;1.88;;;22.40;55.00;;;;;;5052699;28;20053;-65
2022/06/22 00:13:23;;;;;;;1.95;1.77;;;22.40;54.90;;;;;;5055769;28;20040;-66
2022/06/22 00:16:05;;;;;;;1.98;1.83;;;22.40;54.90;;;;;;5049733;28;20033;-65
2022/06/22 00:18:39;;;;;;;3.40;1.90;;;22.40;54.80;;;;;;5056440;28;20550;-65
2022/06/22 00:21:27;;;;;;;3.25;1.75;;;22.40;54.80;;;;;;5020873;28;20060;-66
2022/06/22 00:24:26;;;;;;;2.75;2.08;;;22.50;54.80;;;;;;5052994;28;20049;-65
2022/06/22 00:26:56;;;;;;;2.42;1.90;;;22.40;54.80;;;;;;5021678;28;20147;-65
2022/06/22 00:29:33;;;;;;;;;;;22.40;54.90;;;;;;5055405;28;20059;-65
2022/06/22 00:32:02;;;;;;;3.35;2.20;;;22.40;55.10;;;;;;5053997;28;19925;-65
2022/06/22 00:34:31;;;;;;;2.25;1.70;;;22.40;55.10;;;;;;5053725;28;20029;-65
2022/06/22 00:37:04;;;;;;;2.03;1.83;;;22.40;55.90;;;;;;5054517;28;20500;-65
2022/06/22 00:39:30;;;;;;;2.33;1.88;;;22.40;55.20;;;;;;5052823;28;20048;-65
2022/06/22 00:42:24;;;;;;;2.92;2.08;;;22.40;55.70;;;;;;5055852;28;20037;-66
2022/06/22 00:45:09;;;;;;;2.72;1.85;;;22.40;55.10;;;;;;5044586;28;20045;-65
2022/06/22 00:47:43;;;;;;;2.10;1.90;;;22.40;55.20;;;;;;5052697;28;20091;-65
2022/06/22 00:50:16;;;;;;;2.83;2.00;;;22.40;55.20;;;;;;5052153;28;20091;-65
2022/06/22 00:53:03;;;;;;;2.22;1.70;;;22.40;55.20;;;;;;5055911;28;20488;-65
2022/06/22 00:55:36;;;;;;;2.25;1.70;;;22.40;55.20;;;;;;5056748;28;20036;-65
2022/06/22 00:58:12;;;;;;;2.08;1.88;;;22.40;55.20;;;;;;5058166;28;20040;-66
2022/06/22 01:00:42;;;;;;;1.83;1.70;;;22.40;55.30;;;;;;5057547;28;20039;-64
2022/06/22 01:03:20;;;;;;;2.38;1.92;;;22.40;55.20;;;;;;5037776;28;20063;-65
2022/06/22 01:05:55;;;;;;;1.70;1.60;;;22.40;56.00;;;;;;5059525;28;20045;-65
2022/06/22 01:08:30;;;;;;;2.00;1.75;;;22.40;55.30;;;;;;5056114;28;20075;-63
2022/06/22 01:14:19;;;;;;;1.73;1.63;;;22.40;55.40;;;;;;5057331;28;20526;-65
2022/06/22 01:16:49;;;;;;;2.13;1.63;;;22.40;55.50;;;;;;5056802;28;20120;-64
2022/06/22 01:19:31;;;;;;;2.78;2.08;;;22.40;55.40;;;;;;5036850;28;20041;-66
2022/06/22 01:22:22;;;;;;;2.03;1.67;;;22.40;55.30;;;;;;5056152;28;20067;-65
2022/06/22 01:25:06;;;;;;;1.83;1.70;;;22.40;55.30;;;;;;5058978;28;20389;-65
2022/06/22 01:27:38;;;;;;;2.03;1.83;;;22.40;55.40;;;;;;5058276;28;20048;-62
2022/06/22 01:30:16;;;;;;;1.80;1.70;;;22.40;55.40;;;;;;5057518;28;20032;-65
2022/06/22 01:32:43;;;;;;;3.25;1.95;;;22.40;55.20;;;;;;5057508;28;20555;-65
2022/06/22 01:35:29;;;;;;;2.10;1.92;;;22.40;55.30;;;;;;5057092;28;20059;-64
2022/06/22 01:37:54;;;;;;;2.53;1.90;;;22.40;55.00;;;;;;5057057;28;20042;-65
2022/06/22 01:40:36;;;;;;;2.28;2.08;;;22.40;55.00;;;;;;5056453;28;20042;-65
2022/06/22 01:43:09;;;;;;;2.92;2.10;;;22.40;54.90;;;;;;5056795;28;20040;-65
2022/06/22 01:45:39;;;;;;;2.15;1.70;;;22.40;55.00;;;;;;5057947;28;20040;-66
2022/06/22 01:48:19;;;;;;;2.80;2.03;;;22.40;54.90;;;;;;5057881;28;20052;-66
2022/06/22 01:50:57;;;;;;;2.40;2.03;;;22.40;54.80;;;;;;5058027;28;20404;-62
2022/06/22 01:53:41;;;;;;;1.92;1.83;;;22.40;54.80;;;;;;5053749;28;20116;-65
2022/06/22 01:56:29;;;;;;;2.35;2.15;;;22.40;54.70;;;;;;5053792;28;20033;-65
2022/06/22 01:59:17;;;;;;;1.90;1.70;;;22.40;54.70;;;;;;5054322;28;20437;-66
2022/06/22 02:01:59;;;;;;;2.08;1.88;;;22.40;54.60;;;;;;5054114;28;20041;-62
2022/06/22 02:04:29;;;;;;;2.58;2.00;;;22.40;54.80;;;;;;5055993;28;20073;-64
2022/06/22 02:10:34;;;;;;;2.13;1.92;;;22.40;54.70;;;;;;5055018;28;20044;-62
2022/06/22 02:13:21;;;;;;;2.30;2.00;;;22.40;54.60;;;;;;5057591;28;20045;-65
2022/06/22 02:15:56;;;;;;;2.10;1.88;;;22.30;54.60;;;;;;5056308;28;20099;-65
2022/06/22 02:18:30;;;;;;;3.05;1.92;;;22.30;55.30;;;;;;5057528;28;20079;-65
2022/06/22 02:20:59;;;;;;;1.88;1.77;;;22.30;54.60;;;;;;5055991;28;20037;-65
2022/06/22 02:23:28;;;;;;;2.83;1.80;;;22.30;54.50;;;;;;5054460;28;20168;-65
2022/06/22 02:26:03;;;;;;;2.20;1.90;;;22.30;54.50;;;;;;5056902;28;20120;-63
2022/06/22 02:28:29;;;;;;;1.85;1.75;;;22.30;54.50;;;;;;5056570;28;20135;-65
2022/06/22 02:30:55;;;;;;;1.83;1.73;;;22.30;54.50;;;;;;5056043;28;20045;-66
2022/06/22 02:33:23;;;;;;;2.08;1.88;;;22.30;54.40;;;;;;5056961;28;20047;-66
2022/06/22 02:35:49;;;;;;;2.30;2.00;;;22.30;54.40;;;;;;5055292;28;20493;-64
2022/06/22 02:38:15;;;;;;;2.20;1.75;;;22.30;54.40;;;;;;5054325;28;20853;-65
2022/06/22 02:46:18;;;;;;;3.08;1.75;;;22.30;54.30;;;;;;5057949;28;20086;-65
2022/06/22 02:48:49;;;;;;;2.00;1.80;;;22.30;54.30;;;;;;5055940;28;20040;-64
2022/06/22 02:51:26;;;;;;;1.70;1.55;;;22.30;54.20;;;;;;5055135;28;20483;-64
2022/06/22 02:53:56;;;;;;;2.00;1.80;;;22.30;54.20;;;;;;5056271;28;20047;-65
2022/06/22 02:56:42;;;;;;;1.85;1.70;;;22.30;54.10;;;;;;5035593;28;20044;-65
2022/06/22 02:59:10;;;;;;;2.28;1.70;;;22.30;54.00;;;;;;5055167;28;20688;-65
2022/06/22 03:01:38;;;;;;;1.83;1.73;;;22.30;54.00;;;;;;5054428;28;20037;-65
2022/06/22 03:04:10;;;;;;;1.83;1.55;;;22.30;53.90;;;;;;5053705;28;20037;-65
2022/06/22 03:06:41;;;;;;;2.00;1.80;;;22.30;53.90;;;;;;5055790;28;20041;-64
2022/06/22 03:09:08;;;;;;;2.17;1.88;;;22.30;53.80;;;;;;5055284;28;20127;-63
2022/06/22 03:11:38;;;;;;;2.83;2.08;;;22.30;53.80;;;;;;5054983;28;20041;-65
2022/06/22 03:14:12;;;;;;;2.83;2.00;;;22.30;53.80;;;;;;5056185;28;20089;-65
2022/06/22 03:16:42;;;;;;;2.08;1.88;;;22.30;53.80;;;;;;5056021;28;20111;-65
2022/06/22 03:19:23;;;;;;;1.80;1.70;;;22.30;53.70;;;;;;5052838;28;20076;-66
2022/06/22 03:21:50;;;;;;;1.95;1.77;;;22.30;53.60;;;;;;5055754;28;20040;-66
2022/06/22 03:24:28;;;;;;;1.70;1.60;;;22.30;53.70;;;;;;5054026;28;20048;-65
2022/06/22 03:27:00;;;;;;;2.00;1.77;;;22.30;53.60;;;;;;5055086;28;20048;-62
2022/06/22 03:29:41;;;;;;;2.33;1.67;;;22.30;53.60;;;;;;5055814;28;20043;-65
2022/06/22 03:32:10;;;;;;;;;;;22.30;53.50;;;;;;5054983;28;20094;-65
2022/06/22 03:34:51;;;;;;;2.05;1.45;;;22.30;53.40;;;;;;5054841;28;19920;-64
2022/06/22 03:37:24;;;;;;;1.88;1.60;;;22.20;53.50;;;;;;5055464;28;20076;-65
2022/06/22 03:39:56;;;;;;;2.08;1.77;;;22.20;53.50;;;;;;5054056;28;20048;-65
2022/06/22 03:42:27;;;;;;;1.50;1.38;;;22.20;53.40;;;;;;5054752;28;20048;-64
2022/06/22 03:45:04;;;;;;;1.60;1.50;;;22.20;53.30;;;;;;5054106;28;20055;-66
2022/06/22 03:47:51;;;;;;;1.77;1.63;;;22.20;53.20;;;;;;5051356;28;20538;-64
2022/06/22 03:50:48;;;;;;;2.97;1.70;;;22.20;53.20;;;;;;5054657;28;20060;-65
2022/06/22 03:53:30;;;;;;;5.80;1.85;;;22.20;53.20;;;;;;5052530;28;20404;-62
2022/06/22 03:56:01;;;;;;;1.70;1.60;;;22.20;53.20;;;;;;5034342;28;20128;-64
2022/06/22 03:58:28;;;;;;;2.90;1.77;;;22.20;53.10;;;;;;5054057;28;20439;-65
2022/06/22 04:00:54;;;;;;;1.88;1.38;;;22.20;53.10;;;;;;5053942;28;20037;-65
2022/06/22 04:03:20;;;;;;;1.65;1.55;;;22.20;53.90;;;;;;5054441;28;20044;-66
2022/06/22 04:05:55;;;;;;;1.67;1.55;;;22.20;53.10;;;;;;5055337;28;20117;-64
2022/06/22 04:08:32;;;;;;;2.13;1.35;;;22.20;53.00;;;;;;5053465;28;20044;-63
2022/06/22 04:11:17;;;;;;;1.55;1.45;;;22.20;52.90;;;;;;5054416;28;20503;-65
2022/06/22 04:13:55;;;;;;;2.28;1.50;;;22.20;53.00;;;;;;5055872;28;20049;-66
2022/06/22 04:16:47;;;;;;;2.22;1.33;;;22.20;53.00;;;;;;5053138;28;20715;-65
2022/06/22 04:19:18;;;;;;;1.73;1.60;;;22.20;52.80;;;;;;5043374;28;20646;-65
2022/06/22 04:22:00;;;;;;;1.70;1.60;;;22.20;53.00;;;;;;5055185;28;20037;-65
2022/06/22 04:24:34;;;;;;;1.73;1.50;;;22.20;52.90;;;;;;5053239;28;20057;-65
2022/06/22 04:27:13;;;;;;;1.95;1.42;;;22.20;52.90;;;;;;5054191;28;20151;-65
2022/06/22 04:30:01;;;;;;;2.83;1.60;;;22.20;52.90;;;;;;5055696;28;20036;-66
2022/06/22 04:32:39;;;;;;;1.50;1.40;;;22.20;52.90;;;;;;5059109;28;20045;-65
2022/06/22 04:35:35;;;;;;;1.52;1.42;;;22.20;53.00;;;;;;5060079;28;20033;-62
2022/06/22 04:38:13;;;;;;;3.05;1.50;;;22.20;52.90;;;;;;5051946;28;20496;-65
2022/06/22 04:40:52;;;;;;;2.25;1.50;;;22.20;52.90;;;;;;5056490;28;20032;-64
2022/06/22 04:43:18;;;;;;;2.17;1.63;;;22.20;52.90;;;;;;5053871;28;20054;-65
2022/06/22 04:45:46;;;;;;;3.15;1.50;;;22.20;52.80;;;;;;5056056;28;20033;-65
2022/06/22 04:48:30;;;;;;;3.05;1.85;;;22.20;52.80;;;;;;5057426;28;20041;-64
2022/06/22 04:51:00;;;;;;;3.45;1.60;;;22.20;52.80;;;;;;5056100;28;20041;-62
2022/06/22 04:53:36;;;;;;;2.55;1.67;;;22.20;52.90;;;;;;5059083;28;20044;-64
2022/06/22 04:56:10;;;;;;;2.13;1.60;;;22.20;52.90;;;;;;5056006;28;20056;-65
2022/06/22 04:58:51;;;;;;;1.70;1.52;;;22.20;52.90;;;;;;5057304;28;20594;-65
2022/06/22 05:01:25;;;;;;;2.17;1.50;;;22.20;52.80;;;;;;5059882;28;20127;-65
2022/06/22 05:03:56;;;;;;;2.45;1.75;;;22.20;52.90;;;;;;5057722;28;20444;-63
2022/06/22 05:06:55;;;;;;;1.70;1.60;;;22.20;52.90;;;;;;5056700;28;20519;-65
2022/06/22 05:09:33;;;;;;;1.90;1.58;;;22.20;52.80;;;;;;5049912;28;20558;-65
2022/06/22 05:12:00;;;;;;;3.95;1.70;;;22.20;52.90;;;;;;5055272;28;20040;-65
2022/06/22 05:14:29;;;;;;;1.85;1.50;;;22.20;52.90;;;;;;5056505;28;20377;-64
2022/06/22 05:17:15;;;;;;;4.50;1.80;;;22.20;52.90;;;;;;5056201;28;20045;-64
2022/06/22 05:20:06;;;;;;;1.85;1.70;;;22.20;52.70;;;;;;5054336;28;20071;-65
2022/06/22 05:22:31;;;;;;;3.10;1.60;;;22.20;52.80;;;;;;5056897;28;20041;-64
2022/06/22 05:25:01;;;;;;;2.85;1.55;;;22.20;52.90;;;;;;5055234;28;20851;-65
2022/06/22 05:27:31;;;;;;;1.67;1.55;;;22.20;52.80;;;;;;5054815;28;20756;-65
2022/06/22 05:30:02;;;;;;;1.92;1.60;;;22.20;52.90;;;;;;5055812;28;20044;-65
2022/06/22 05:32:45;;;;;;;1.63;1.52;;;22.20;52.90;;;;;;5056272;28;20079;-65
2022/06/22 05:35:15;;;;;;;2.90;1.75;;;22.20;52.90;;;;;;5057841;28;20032;-64
2022/06/22 05:37:45;;;;;;;3.00;2.35;;;22.20;53.00;;;;;;5049153;28;20499;-65
2022/06/22 05:40:24;;;;;;;2.38;2.08;;;22.20;53.20;;;;;;5035226;28;20078;-67
2022/06/22 05:42:57;;;;;;;4.72;2.60;;;22.20;53.30;;;;;;5024161;28;20197;-66
2022/06/22 05:45:31;;;;;;;3.05;2.75;;;22.20;53.20;;;;;;5022356;28;20041;-66
2022/06/22 05:48:33;;;;;;;;;;;;;;;;;;;;;
2022/06/22 05:51:13;;;;;;;6.18;3.42;;;22.20;53.00;;;;;;5035576;28;20043;-64
2022/06/22 05:54:02;;;;;;;5.20;3.78;;;22.10;53.00;;;;;;5052888;28;20049;-64
2022/06/22 05:56:39;;;;;;;5.28;3.33;;;22.10;53.10;;;;;;5054542;28;20204;-67
2022/06/22 05:59:27;;;;;;;3.92;2.83;;;22.10;53.40;;;;;;5052161;28;20048;-65
2022/06/22 06:02:16;;;;;;;5.75;3.92;;;22.10;53.50;;;;;;5052809;28;20041;-65
2022/06/22 06:05:05;;;;;;;6.30;3.30;;;22.10;53.50;;;;;;5055705;28;20032;-62
2022/06/22 06:07:38;;;;;;;5.00;3.95;;;22.10;53.40;;;;;;5056510;28;20461;-67
2022/06/22 06:10:13;;;;;;;6.05;4.18;;;22.10;53.40;;;;;;5039377;28;20094;-65
2022/06/22 06:12:47;;;;;;;4.78;4.00;;;22.10;53.50;;;;;;5052147;28;20044;-65
2022/06/22 06:15:14;;;;;;;4.70;4.20;;;22.10;53.60;;;;;;5055796;28;20109;-65
2022/06/22 06:17:44;;;;;;;5.50;4.50;;;22.10;53.70;;;;;;5055622;28;20040;-65
2022/06/22 06:20:37;;;;;;;5.17;4.67;;;22.10;53.80;;;;;;5054106;28;20052;-67
2022/06/22 06:29:11;;;;;;;6.38;3.80;;;22.00;53.90;;;;;;5085387;28;20130;-67
2022/06/22 06:31:49;;;;;;;4.35;3.90;;;22.00;53.90;;;;;;5021472;28;20052;-67
2022/06/22 06:34:18;;;;;;;4.10;3.72;;;22.00;54.00;;;;;;5078841;28;20052;-67
2022/06/22 06:37:00;;;;;;;7.68;4.18;;;22.00;54.00;;;;;;5086028;28;20570;-67
2022/06/22 06:39:29;;;;;;;7.47;4.40;;;22.00;54.00;;;;;;5089317;28;20040;-67
2022/06/22 06:42:04;;;;;;;4.43;3.90;;;22.00;54.00;;;;;;5089541;28;20048;-67
2022/06/22 06:44:35;;;;;;;4.22;3.83;;;22.00;54.00;;;;;;5085736;28;20141;-67
2022/06/22 06:47:05;;;;;;;5.00;3.60;;;22.00;54.00;;;;;;5088198;28;20048;-67
2022/06/22 06:49:37;;;;;;;3.85;3.40;;;22.00;54.10;;;;;;5086146;28;20044;-67
2022/06/22 06:52:36;;;;;;;4.60;3.28;;;22.10;54.30;;;;;;5085155;28;20399;-67
2022/06/22 06:55:08;;;;;;;6.63;3.45;;;22.10;54.30;;;;;;5087229;28;20078;-67
2022/06/22 06:57:37;;;;;;;6.40;4.22;;;22.00;54.30;;;;;;5084318;28;20054;-69
2022/06/22 07:00:09;;;;;;;6.15;4.40;;;22.00;54.30;;;;;;5088637;28;20052;-68
2022/06/22 07:02:38;;;;;;;6.68;3.90;;;22.00;54.30;;;;;;5088260;28;20063;-68
2022/06/22 07:05:10;;;;;;;5.47;4.20;;;22.00;54.40;;;;;;5086021;28;20179;-68
2022/06/22 07:07:49;;;;;;;5.65;4.05;;;22.00;54.60;;;;;;5085387;28;20127;-68
2022/06/22 07:10:20;;;;;;;13.65;4.68;;;22.00;54.70;;;;;;5087189;28;20043;-70
2022/06/22 07:12:59;;;;;;;5.72;3.75;;;22.00;54.80;;;;;;5083952;28;20119;-67
2022/06/22 07:15:34;;;;;;;5.20;4.10;;;22.00;54.90;;;;;;5086061;28;20048;-67
2022/06/22 07:18:05;;;;;;;5.53;4.35;;;22.00;54.90;;;;;;5089919;28;20063;-66
2022/06/22 07:20:39;;;;;;;5.88;4.22;;;22.00;54.80;;;;;;5074219;28;20487;-67
2022/06/22 07:23:22;;;;;;;6.13;4.43;;;22.00;54.80;;;;;;5086763;28;20048;-67
2022/06/22 07:25:53;;;;;;;6.95;4.53;;;22.00;54.80;;;;;;5091707;28;20391;-69
2022/06/22 07:28:25;;;;;;;5.82;4.25;;;22.00;54.80;;;;;;5087578;28;20133;-68
2022/06/22 07:30:56;;;;;;;5.43;3.78;;;21.90;54.90;;;;;;5082810;28;20051;-67
2022/06/22 07:33:33;;;;;;;5.30;3.80;;;21.90;55.10;;;;;;5086352;28;20048;-67
2022/06/22 07:36:21;;;;;;;7.28;3.95;;;22.00;55.10;;;;;;5078462;28;20059;-67
2022/06/22 07:38:59;;;;;;;6.88;3.83;;;22.00;55.90;;;;;;5072226;28;20522;-67
2022/06/22 07:41:26;;;;;;;6.95;3.95;;;22.00;55.80;;;;;;5060576;28;20048;-67
2022/06/22 07:44:01;;;;;;;7.28;3.65;;;22.00;55.60;;;;;;5073602;28;20101;-67
2022/06/22 07:46:38;;;;;;;4.22;3.80;;;22.00;55.50;;;;;;5070182;28;20056;-67
2022/06/22 07:49:23;;;;;;;6.50;3.83;;;22.00;55.40;;;;;;5075139;28;20052;-67
2022/06/22 07:51:52;;;;;;;6.53;3.97;;;22.00;55.90;;;;;;5073088;28;20040;-67
2022/06/22 07:54:32;;;;;;;5.00;3.38;;;22.00;55.00;;;;;;5073506;28;20037;-68
2022/06/22 07:57:17;;;;;;;8.25;3.50;;;22.00;55.00;;;;;;5072003;28;20048;-66
2022/06/22 07:59:48;;;;;;;4.22;3.25;;;22.00;54.90;;;;;;5072605;28;20049;-67
2022/06/22 08:02:20;;;;;;;6.63;2.90;;;22.00;54.80;;;;;;5071031;28;20052;-67
2022/06/22 08:04:56;;;;;;;4.30;3.10;;;22.00;54.90;;;;;;5077231;28;20636;-67
2022/06/22 08:07:24;;;;;;;4.30;3.10;;;22.00;54.70;;;;;;5071409;28;20059;-67
2022/06/22 08:10:01;;;;;;;7.13;3.10;;;22.00;54.50;;;;;;5063971;28;20064;-67
2022/06/22 08:13:04;;;;;;;4.93;3.00;;;22.00;54.20;;;;;;5055628;28;20102;-67
2022/06/22 08:15:37;;;;;;;4.13;3.30;;;22.00;54.20;;;;;;5070637;28;20411;-67
2022/06/22 08:18:03;;;;;;;6.65;3.13;;;22.00;54.30;;;;;;5069632;28;20788;-67
2022/06/22 08:20:33;;;;;;;4.47;3.08;;;22.00;54.40;;;;;;5070225;28;20068;-67
2022/06/22 08:23:04;;;;;;;4.85;2.80;;;22.00;54.50;;;;;;5075362;28;20055;-67
2022/06/22 08:25:32;;;;;;;3.88;2.85;;;22.00;54.30;;;;;;5068733;28;20052;-67
2022/06/22 08:27:59;;;;;;;3.55;2.80;;;22.00;54.40;;;;;;5070595;28;20052;-68
2022/06/22 08:30:25;;;;;;;3.17;2.63;;;22.00;54.30;;;;;;5051823;28;20055;-68
2022/06/22 08:33:02;;;;;;;4.47;2.47;;;22.00;54.20;;;;;;5069864;28;20048;-68
2022/06/22 08:35:36;;;;;;;4.60;3.40;;;22.00;54.20;;;;;;5069866;28;20059;-68
2022/06/22 08:38:11;;;;;;;5.97;3.38;;;22.00;54.20;;;;;;5071377;28;20040;-68
2022/06/22 08:40:49;;;;;;;8.52;3.25;;;22.00;54.20;;;;;;5072944;28;20063;-68
2022/06/22 08:43:20;;;;;;;5.95;3.53;;;22.00;54.40;;;;;;5071780;28;20122;-68
2022/06/22 08:45:54;;;;;;;5.28;3.47;;;22.00;54.20;;;;;;5071562;28;20040;-68
2022/06/22 08:48:35;;;;;;;5.32;3.85;;;22.00;54.20;;;;;;5069287;28;20064;-69
2022/06/22 08:51:25;;;;;;;4.10;3.33;;;22.00;54.30;;;;;;5069519;28;20048;-69
2022/06/22 08:54:01;;;;;;;6.05;3.30;;;22.00;54.20;;;;;;5054453;28;20571;-69
2022/06/22 08:56:48;;;;;;;3.67;2.90;;;22.00;54.30;;;;;;5069858;28;20075;-69
2022/06/22 08:59:39;;;;;;;4.70;3.00;;;22.00;54.40;;;;;;5071055;28;20252;-68
2022/06/22 09:02:29;;;;;;;3.90;2.90;;;22.00;54.00;;;;;;5069576;28;20171;-69
2022/06/22 09:05:10;;;;;;;4.60;2.58;;;22.00;54.00;;;;;;5068592;28;20036;-69
2022/06/22 09:08:02;;;;;;;3.17;2.85;;;22.00;54.00;;;;;;5072606;28;20044;-68
2022/06/22 09:10:46;;;;;;;5.13;2.70;;;22.00;54.00;;;;;;5053866;28;20056;-69
2022/06/22 09:13:37;;;;;;;5.25;2.67;;;22.00;53.20;;;;;;5069062;28;20562;-68
2022/06/22 09:16:22;;;;;;;4.88;2.50;;;22.00;53.60;;;;;;5070557;28;20502;-68
2022/06/22 09:18:57;;;;;;;5.15;2.58;;;22.00;53.40;;;;;;5071142;28;20056;-68
2022/06/22 09:21:38;;;;;;;4.43;2.78;;;22.00;53.70;;;;;;5073209;28;20135;-70
2022/06/22 09:24:43;;;;;;;3.40;1.98;;;22.00;53.90;;;;;;5076239;28;20518;-69
2022/06/22 09:27:19;;;;;;;3.38;2.22;;;22.00;53.30;;;;;;5062903;28;20148;-68
2022/06/22 09:30:03;;;;;;;2.78;2.30;;;22.00;53.40;;;;;;5067171;28;20111;-68
2022/06/22 09:33:06;;;;;;;2.88;2.20;;;22.00;53.60;;;;;;5071710;28;20108;-69
2022/06/22 09:36:00;;;;;;;4.03;2.03;;;22.00;53.80;;;;;;5073245;28;20044;-68
2022/06/22 09:38:49;;;;;;;3.30;1.90;;;22.00;53.80;;;;;;5053807;28;20056;-69
2022/06/22 09:41:17;;;;;;;3.72;1.95;;;22.00;52.80;;;;;;5064005;28;20061;-68
2022/06/22 09:44:02;;;;;;;3.15;1.75;;;22.00;53.00;;;;;;5072226;28;20049;-69
2022/06/22 09:46:57;;;;;;;3.10;1.70;;;22.00;53.20;;;;;;5071097;28;20704;-69
2022/06/22 09:49:41;;;;;;;2.72;1.80;;;22.10;52.50;;;;;;5072635;28;20040;-68
2022/06/22 09:52:54;;;;;;;2.75;1.85;;;22.00;51.40;;;;;;5069937;28;20463;-69
2022/06/22 09:58:25;;;;;;;1.90;1.58;;;22.00;51.90;;;;;;5068069;28;20071;-69
2022/06/22 10:01:18;;;;;;;2.35;1.55;;;22.00;50.50;;;;;;5069755;28;20070;-69
2022/06/22 10:04:15;;;;;;;2.65;1.60;;;22.00;51.00;;;;;;5071632;28;20056;-69
2022/06/22 10:07:13;;;;;;;2.72;1.88;;;22.00;51.30;;;;;;5071171;28;20139;-69
2022/06/22 10:09:57;;;;;;;2.83;1.65;;;22.00;51.30;;;;;;5069169;28;20054;-69
2022/06/22 10:12:43;;;;;;;2.20;1.58;;;22.00;50.60;;;;;;5053124;28;20435;-69
2022/06/22 10:15:31;;;;;;;1.58;1.27;;;22.00;51.20;;;;;;5070164;28;20048;-69
2022/06/22 10:18:17;;;;;;;1.60;1.30;;;22.00;51.20;;;;;;5071609;28;20562;-68
2022/06/22 10:20:57;;;;;;;2.63;1.67;;;22.00;51.30;;;;;;5068968;28;20142;-68
2022/06/22 10:23:50;;;;;;;2.70;1.67;;;22.00;50.90;;;;;;5068946;28;20045;-69
2022/06/22 10:26:36;;;;;;;1.88;1.40;;;22.00;51.10;;;;;;5071534;28;20052;-70
2022/06/22 10:29:06;;;;;;;3.30;1.38;;;22.00;51.10;;;;;;5068794;28;20135;-69
2022/06/22 10:31:51;;;;;;;;;;;22.00;51.10;;;;;;5069603;28;20051;-69
2022/06/22 10:34:42;;;;;;;3.83;1.58;;;22.00;50.90;;;;;;5070843;28;19931;-69
2022/06/22 10:37:26;;;;;;;;;;;22.00;50.80;;;;;;5073143;28;20052;-69
2022/06/22 10:39:59;;;;;;;2.30;1.25;;;22.00;50.40;;;;;;5070541;28;19924;-69
2022/06/22 10:45:40;;;;;;;1.30;1.13;;;22.00;50.60;;;;;;5071568;28;20056;-70
2022/06/22 10:48:35;;;;;;;1.40;1.20;;;22.00;50.60;;;;;;5067959;28;20101;-69
2022/06/22 10:51:17;;;;;;;3.70;1.35;;;22.00;50.30;;;;;;5068017;28;20051;-69
2022/06/22 10:54:20;;;;;;;1.90;1.40;;;22.00;50.30;;;;;;5068486;28;20066;-69
2022/06/22 10:57:07;;;;;;;1.58;1.10;;;22.10;50.10;;;;;;5070009;28;20047;-69
2022/06/22 10:59:51;;;;;;;2.85;1.05;;;22.00;49.90;;;;;;5051716;28;20053;-70
2022/06/22 11:02:32;;;;;;;2.33;1.15;;;22.00;49.70;;;;;;5070043;28;20138;-69
2022/06/22 11:05:16;;;;;;;1.08;0.82;;;22.10;49.80;;;;;;5067950;28;20479;-69
2022/06/22 11:07:51;;;;;;;1.45;1.00;;;22.00;49.40;;;;;;5069946;28;20426;-70
2022/06/22 11:10:38;;;;;;;1.17;1.00;;;22.10;49.30;;;;;;5057354;28;20052;-68
2022/06/22 11:13:13;;;;;;;2.05;0.95;;;22.10;49.20;;;;;;5071436;28;20044;-70
2022/06/22 11:15:59;;;;;;;2.60;0.90;;;22.10;49.40;;;;;;5073996;28;20040;-69
2022/06/22 11:18:41;;;;;;;2.78;1.08;;;22.10;49.30;;;;;;5072779;28;20052;-69
2022/06/22 11:21:20;;;;;;;2.85;0.88;;;22.10;49.40;;;;;;5072078;28;20052;-70
2022/06/22 11:24:14;;;;;;;2.88;0.80;;;22.10;49.30;;;;;;5071467;28;20453;-69
2022/06/22 11:33:24;;;;;;;2.23;0.97;;;22.10;48.90;;;;;;5071460;28;20452;-68
2022/06/22 11:36:21;;;;;;;1.90;0.85;;;22.10;48.60;;;;;;5070730;28;20299;-69
2022/06/22 11:39:18;;;;;;;1.23;0.98;;;22.10;48.40;;;;;;5070002;28;20075;-69
2022/06/22 11:42:09;;;;;;;0.98;0.70;;;22.10;48.00;;;;;;5076276;28;20454;-71
2022/06/22 11:48:06;;;;;;;2.42;1.10;;;22.10;48.20;;;;;;5073141;28;20063;-70
2022/06/22 11:50:47;;;;;;;1.77;0.93;;;22.10;48.00;;;;;;5075415;28;20044;-67
2022/06/22 11:53:25;;;;;;;;;;;22.10;47.80;;;;;;5072540;28;20043;-69
2022/06/22 11:55:58;;;;;;;1.40;0.88;;;22.10;47.80;;;;;;5074550;28;19923;-67
2022/06/22 11:59:07;;;;;;;4.90;0.90;;;22.00;48.20;;;;;;5072374;28;20048;-69
2022/06/22 12:01:42;;;;;;;4.43;1.08;;;22.10;48.20;;;;;;5070480;28;20090;-69
2022/06/22 12:04:38;;;;;;;2.92;0.90;;;22.10;48.50;;;;;;5074632;28;20585;-69
2022/06/22 12:07:48;;;;;;;3.88;0.98;;;22.10;48.90;;;;;;5071369;28;20596;-67
2022/06/22 12:10:24;;;;;;;2.63;1.00;;;22.10;49.20;;;;;;5067993;28;20047;-68
2022/06/22 12:13:11;;;;;;;1.85;0.90;;;22.10;49.40;;;;;;5073119;28;20049;-68
2022/06/22 12:15:50;;;;;;;3.40;0.85;;;22.10;49.70;;;;;;5069740;28;20044;-68
2022/06/22 12:18:19;;;;;;;2.50;0.90;;;22.10;49.90;;;;;;5071974;28;20044;-68
2022/06/22 12:20:53;;;;;;;3.05;1.10;;;22.10;49.90;;;;;;5074062;28;20047;-68
2022/06/22 12:23:33;;;;;;;2.28;0.73;;;22.20;49.90;;;;;;5068963;28;20392;-67
2022/06/22 12:26:20;;;;;;;3.00;1.08;;;22.10;50.00;;;;;;5070450;28;20119;-69
2022/06/22 12:29:01;;;;;;;1.73;1.00;;;22.20;50.10;;;;;;5073840;28;20040;-69
2022/06/22 12:31:47;;;;;;;2.17;1.00;;;22.10;49.60;;;;;;5073548;28;20135;-68
2022/06/22 12:34:16;;;;;;;3.55;1.20;;;22.20;49.40;;;;;;5065755;28;20094;-68
2022/06/22 12:36:48;;;;;;;2.92;1.00;;;22.20;49.10;;;;;;5072952;28;20048;-68
2022/06/22 12:39:26;;;;;;;1.23;1.00;;;22.20;49.00;;;;;;5069616;28;20130;-68
2022/06/22 12:42:13;;;;;;;1.25;0.90;;;22.10;48.90;;;;;;5071001;28;20075;-68
2022/06/22 12:45:09;;;;;;;2.78;1.05;;;22.20;49.00;;;;;;5071566;28;20186;-68
2022/06/22 12:47:56;;;;;;;2.60;0.93;;;22.10;48.60;;;;;;5072341;28;20067;-68
2022/06/22 12:50:43;;;;;;;1.92;1.02;;;22.20;48.60;;;;;;5071058;28;20102;-69
2022/06/22 12:53:15;;;;;;;2.08;0.75;;;22.20;48.50;;;;;;5072417;28;20048;-69
2022/06/22 12:55:51;;;;;;;3.42;1.10;;;22.20;48.60;;;;;;5073043;28;20191;-69
2022/06/22 12:58:19;;;;;;;2.05;1.15;;;22.10;48.50;;;;;;5069301;28;20051;-68
2022/06/22 13:00:44;;;;;;;2.00;1.00;;;22.20;48.50;;;;;;5072942;28;20055;-67
2022/06/22 13:03:20;;;;;;;1.17;0.95;;;22.20;48.50;;;;;;5073976;28;20903;-69
2022/06/22 13:05:46;;;;;;;0.98;0.80;;;22.20;48.50;;;;;;5073873;28;21045;-69
2022/06/22 13:08:20;;;;;;;1.88;1.08;;;22.20;48.50;;;;;;5070707;28;20085;-67
2022/06/22 13:10:49;;;;;;;2.05;1.30;;;22.20;48.40;;;;;;5071174;28;20484;-69
2022/06/22 13:13:43;;;;;;;1.63;0.95;;;22.20;48.40;;;;;;5071914;28;20052;-69
2022/06/22 13:16:18;;;;;;;2.10;0.90;;;22.20;48.20;;;;;;5070935;28;20553;-70
2022/06/22 13:19:22;;;;;;;2.33;1.27;;;22.20;48.40;;;;;;5070135;28;20080;-70
2022/06/22 13:21:54;;;;;;;2.28;1.15;;;22.20;48.50;;;;;;5053918;28;20056;-70
2022/06/22 13:24:41;;;;;;;1.67;1.00;;;22.20;48.50;;;;;;5052600;28;20045;-69
2022/06/22 13:27:24;;;;;;;1.02;0.98;;;22.20;48.50;;;;;;5062963;28;20063;-69
2022/06/22 13:29:57;;;;;;;1.05;0.95;;;22.20;48.50;;;;;;5064328;28;20052;-67
2022/06/22 13:32:26;;;;;;;1.65;1.10;;;22.20;49.60;;;;;;5064186;28;20044;-70
2022/06/22 13:34:56;;;;;;;1.40;1.00;;;22.20;50.00;;;;;;5076141;28;20047;-69
2022/06/22 13:37:33;;;;;;;1.55;0.90;;;22.20;50.40;;;;;;5067871;28;20055;-68
2022/06/22 13:40:26;;;;;;;2.85;1.20;;;22.20;50.60;;;;;;5070536;28;20139;-69
2022/06/22 13:42:51;;;;;;;3.20;0.95;;;22.20;50.90;;;;;;5071867;28;20156;-70
2022/06/22 13:45:45;;;;;;;1.42;1.00;;;22.20;51.20;;;;;;5069127;28;20074;-69
2022/06/22 13:48:19;;;;;;;1.55;1.17;;;22.20;51.50;;;;;;5057647;28;20044;-71
2022/06/22 13:51:20;;;;;;;2.58;1.00;;;22.20;51.40;;;;;;5074945;28;20078;-68
2022/06/22 13:54:10;;;;;;;8.00;0.90;;;22.20;51.50;;;;;;5071999;28;20040;-69
2022/06/22 13:57:20;;;;;;;0.95;0.90;;;22.20;51.60;;;;;;5070384;28;20835;-69
2022/06/22 14:00:15;;;;;;;1.42;1.25;;;22.30;52.00;;;;;;5051387;28;20074;-69
2022/06/22 14:03:15;;;;;;;4.88;1.20;;;22.20;52.00;;;;;;5070030;28;20064;-69
2022/06/22 14:05:47;;;;;;;2.60;0.95;;;22.30;51.80;;;;;;5068647;28;20407;-69
2022/06/22 14:08:21;;;;;;;2.75;1.00;;;22.30;51.60;;;;;;5066980;28;20118;-69
2022/06/22 14:10:53;;;;;;;6.28;1.17;;;22.20;51.80;;;;;;5070051;28;20048;-69
2022/06/22 14:13:38;;;;;;;1.20;1.00;;;22.20;51.80;;;;;;5067887;28;20083;-70
2022/06/22 14:16:06;;;;;;;1.55;0.90;;;22.30;51.50;;;;;;5067674;28;20470;-68
2022/06/22 14:18:47;;;;;;;1.98;1.15;;;22.30;51.60;;;;;;5068671;28;20059;-69
2022/06/22 14:21:38;;;;;;;3.75;1.20;;;22.30;51.50;;;;;;5067454;28;20051;-69
2022/06/22 14:24:14;;;;;;;3.78;1.00;;;22.30;51.50;;;;;;5069364;28;20131;-68